sensor_id;sensor_type;location;lat;lon;timestamp;temperature;humidity
7290;DHT22;63176;52.678;13.250;2023-07-02T00:02:21;17.80;99.90
7290;DHT22;63176;52.678;13.250;2023-07-02T00:04:47;17.80;99.90
7290;DHT22;63176;52.678;13.250;2023-07-02T00:07:13;17.80;99.90
7290;DHT22;63176;52.678;13.250;2023-07-02T00:09:40;17.80;99.90
7290;DHT22;63176;52.678;13.250;2023-07-02T00:12:06;17.90;99.90
7290;DHT22;63176;52.678;13.250;2023-07-02T00:14:32;17.80;99.90
7290;DHT22;63176;52.678;13.250;2023-07-02T00:16:58;17.80;99.90
7290;DHT22;63176;52.678;13.250;2023-07-02T00:19:24;17.80;99.90
7290;DHT22;63176;52.678;13.250;2023-07-02T00:21:49;17.80;99.90
7290;DHT22;63176;52.678;13.250;2023-07-02T00:24:18;17.80;99.90
7290;DHT22;63176;52.678;13.250;2023-07-02T00:26:44;17.80;99.90
7290;DHT22;63176;52.678;13.250;2023-07-02T00:29:10;17.80;99.90
7290;DHT22;63176;52.678;13.250;2023-07-02T00:31:36;17.80;99.90
7290;DHT22;63176;52.678;13.250;2023-07-02T00:34:02;17.80;99.90
7290;DHT22;63176;52.678;13.250;2023-07-02T00:36:28;17.80;99.90
7290;DHT22;63176;52.678;13.250;2023-07-02T00:38:54;17.80;99.90
7290;DHT22;63176;52.678;13.250;2023-07-02T00:41:20;17.80;99.90
7290;DHT22;63176;52.678;13.250;2023-07-02T00:43:46;17.80;99.90
7290;DHT22;63176;52.678;13.250;2023-07-02T00:46:19;17.90;99.90
7290;DHT22;63176;52.678;13.250;2023-07-02T00:48:52;17.80;99.90
7290;DHT22;63176;52.678;13.250;2023-07-02T00:51:26;17.80;99.90
7290;DHT22;63176;52.678;13.250;2023-07-02T00:53:54;17.80;99.90
7290;DHT22;63176;52.678;13.250;2023-07-02T00:56:21;17.80;99.90
7290;DHT22;63176;52.678;13.250;2023-07-02T00:58:48;17.80;99.90
7290;DHT22;63176;52.678;13.250;2023-07-02T01:01:23;17.80;99.90
7290;DHT22;63176;52.678;13.250;2023-07-02T01:04:04;17.80;99.90
7290;DHT22;63176;52.678;13.250;2023-07-02T01:06:32;17.80;99.90
7290;DHT22;63176;52.678;13.250;2023-07-02T01:09:00;17.70;99.90
7290;DHT22;63176;52.678;13.250;2023-07-02T01:11:30;17.70;99.90
7290;DHT22;63176;52.678;13.250;2023-07-02T01:14:09;17.70;99.90
7290;DHT22;63176;52.678;13.250;2023-07-02T01:16:37;17.70;99.90
7290;DHT22;63176;52.678;13.250;2023-07-02T01:19:13;17.60;99.90
7290;DHT22;63176;52.678;13.250;2023-07-02T01:21:45;17.60;99.90
7290;DHT22;63176;52.678;13.250;2023-07-02T01:24:11;17.60;99.90
7290;DHT22;63176;52.678;13.250;2023-07-02T01:26:39;17.60;99.90
7290;DHT22;63176;52.678;13.250;2023-07-02T01:29:19;17.60;99.90
7290;DHT22;63176;52.678;13.250;2023-07-02T01:31:46;17.50;99.90
7290;DHT22;63176;52.678;13.250;2023-07-02T01:34:12;17.50;99.90
7290;DHT22;63176;52.678;13.250;2023-07-02T01:36:38;17.50;99.90
7290;DHT22;63176;52.678;13.250;2023-07-02T01:39:04;17.50;99.90
7290;DHT22;63176;52.678;13.250;2023-07-02T01:41:31;17.40;99.90
7290;DHT22;63176;52.678;13.250;2023-07-02T01:43:57;17.50;99.90
7290;DHT22;63176;52.678;13.250;2023-07-02T01:46:23;17.40;99.90
7290;DHT22;63176;52.678;13.250;2023-07-02T01:48:48;17.40;99.90
7290;DHT22;63176;52.678;13.250;2023-07-02T01:51:14;17.50;99.90
7290;DHT22;63176;52.678;13.250;2023-07-02T01:53:39;17.50;99.90
7290;DHT22;63176;52.678;13.250;2023-07-02T01:56:05;17.50;99.90
7290;DHT22;63176;52.678;13.250;2023-07-02T01:58:31;17.40;99.90
7290;DHT22;63176;52.678;13.250;2023-07-02T02:00:56;17.40;99.90
7290;DHT22;63176;52.678;13.250;2023-07-02T02:03:22;17.40;99.90
7290;DHT22;63176;52.678;13.250;2023-07-02T02:05:48;17.40;99.90
7290;DHT22;63176;52.678;13.250;2023-07-02T02:08:14;17.40;99.90
7290;DHT22;63176;52.678;13.250;2023-07-02T02:10:39;17.40;99.90
7290;DHT22;63176;52.678;13.250;2023-07-02T02:13:05;17.40;99.90
7290;DHT22;63176;52.678;13.250;2023-07-02T02:15:31;17.30;99.90
7290;DHT22;63176;52.678;13.250;2023-07-02T02:17:56;17.30;99.90
7290;DHT22;63176;52.678;13.250;2023-07-02T02:20:22;17.30;99.90
7290;DHT22;63176;52.678;13.250;2023-07-02T02:22:47;17.20;99.90
7290;DHT22;63176;52.678;13.250;2023-07-02T02:25:13;17.20;99.90
7290;DHT22;63176;52.678;13.250;2023-07-02T02:27:39;17.20;99.90
7290;DHT22;63176;52.678;13.250;2023-07-02T02:30:05;17.20;99.90
7290;DHT22;63176;52.678;13.250;2023-07-02T02:32:32;17.20;99.90
7290;DHT22;63176;52.678;13.250;2023-07-02T02:34:57;17.20;99.90
7290;DHT22;63176;52.678;13.250;2023-07-02T02:37:23;17.10;99.90
7290;DHT22;63176;52.678;13.250;2023-07-02T02:39:49;17.10;99.90
7290;DHT22;63176;52.678;13.250;2023-07-02T02:42:15;17.10;99.90
7290;DHT22;63176;52.678;13.250;2023-07-02T02:44:40;17.10;99.90
7290;DHT22;63176;52.678;13.250;2023-07-02T02:47:06;17.10;99.90
7290;DHT22;63176;52.678;13.250;2023-07-02T02:49:32;17.00;99.90
7290;DHT22;63176;52.678;13.250;2023-07-02T02:51:57;17.00;99.90
7290;DHT22;63176;52.678;13.250;2023-07-02T02:54:23;17.00;99.90
7290;DHT22;63176;52.678;13.250;2023-07-02T02:56:48;16.90;99.90
7290;DHT22;63176;52.678;13.250;2023-07-02T02:59:14;16.90;99.90
7290;DHT22;63176;52.678;13.250;2023-07-02T03:01:40;16.80;99.90
7290;DHT22;63176;52.678;13.250;2023-07-02T03:04:05;16.80;99.90
7290;DHT22;63176;52.678;13.250;2023-07-02T03:06:33;16.80;99.90
7290;DHT22;63176;52.678;13.250;2023-07-02T03:08:59;16.80;99.90
7290;DHT22;63176;52.678;13.250;2023-07-02T03:11:25;16.80;99.90
7290;DHT22;63176;52.678;13.250;2023-07-02T03:13:50;16.80;99.90
7290;DHT22;63176;52.678;13.250;2023-07-02T03:16:16;16.80;99.90
7290;DHT22;63176;52.678;13.250;2023-07-02T03:18:41;16.80;99.90
7290;DHT22;63176;52.678;13.250;2023-07-02T03:21:07;16.80;99.90
7290;DHT22;63176;52.678;13.250;2023-07-02T03:23:33;16.80;99.90
7290;DHT22;63176;52.678;13.250;2023-07-02T03:28:51;16.80;99.90
7290;DHT22;63176;52.678;13.250;2023-07-02T03:31:17;16.80;99.90
7290;DHT22;63176;52.678;13.250;2023-07-02T03:33:42;16.80;99.90
7290;DHT22;63176;52.678;13.250;2023-07-02T03:36:08;16.80;99.90
7290;DHT22;63176;52.678;13.250;2023-07-02T03:38:33;16.80;99.90
7290;DHT22;63176;52.678;13.250;2023-07-02T03:40:59;16.80;99.90
7290;DHT22;63176;52.678;13.250;2023-07-02T03:43:24;16.80;99.90
7290;DHT22;63176;52.678;13.250;2023-07-02T03:45:54;16.80;99.90
7290;DHT22;63176;52.678;13.250;2023-07-02T03:48:19;16.80;99.90
7290;DHT22;63176;52.678;13.250;2023-07-02T03:50:45;16.80;99.90
7290;DHT22;63176;52.678;13.250;2023-07-02T03:53:11;16.80;99.90
7290;DHT22;63176;52.678;13.250;2023-07-02T03:55:36;16.80;99.90
7290;DHT22;63176;52.678;13.250;2023-07-02T03:58:02;16.80;99.90
7290;DHT22;63176;52.678;13.250;2023-07-02T04:00:27;16.80;99.90
7290;DHT22;63176;52.678;13.250;2023-07-02T04:02:53;16.80;99.90
7290;DHT22;63176;52.678;13.250;2023-07-02T04:05:19;16.70;99.90
7290;DHT22;63176;52.678;13.250;2023-07-02T04:07:45;16.80;99.90
7290;DHT22;63176;52.678;13.250;2023-07-02T04:10:11;16.80;99.90
7290;DHT22;63176;52.678;13.250;2023-07-02T04:12:36;16.80;99.90
7290;DHT22;63176;52.678;13.250;2023-07-02T04:15:02;16.80;99.90
7290;DHT22;63176;52.678;13.250;2023-07-02T04:17:29;16.80;99.90
7290;DHT22;63176;52.678;13.250;2023-07-02T04:19:55;16.80;99.90
7290;DHT22;63176;52.678;13.250;2023-07-02T04:22:21;16.80;99.90
7290;DHT22;63176;52.678;13.250;2023-07-02T04:24:46;16.80;99.90
7290;DHT22;63176;52.678;13.250;2023-07-02T04:27:17;16.80;99.90
7290;DHT22;63176;52.678;13.250;2023-07-02T04:29:44;16.90;99.90
7290;DHT22;63176;52.678;13.250;2023-07-02T04:32:09;16.90;99.90
7290;DHT22;63176;52.678;13.250;2023-07-02T04:34:35;17.00;99.90
7290;DHT22;63176;52.678;13.250;2023-07-02T04:37:03;16.90;99.90
7290;DHT22;63176;52.678;13.250;2023-07-02T04:39:29;17.00;99.90
7290;DHT22;63176;52.678;13.250;2023-07-02T04:41:54;17.00;99.90
7290;DHT22;63176;52.678;13.250;2023-07-02T04:44:21;17.00;99.90
7290;DHT22;63176;52.678;13.250;2023-07-02T04:47:00;17.10;99.90
7290;DHT22;63176;52.678;13.250;2023-07-02T04:49:32;17.10;99.90
7290;DHT22;63176;52.678;13.250;2023-07-02T04:51:58;17.10;99.90
7290;DHT22;63176;52.678;13.250;2023-07-02T04:57:53;17.20;99.90
7290;DHT22;63176;52.678;13.250;2023-07-02T05:00:33;17.30;99.90
7290;DHT22;63176;52.678;13.250;2023-07-02T05:03:02;17.40;99.90
7290;DHT22;63176;52.678;13.250;2023-07-02T05:05:31;17.40;99.90
7290;DHT22;63176;52.678;13.250;2023-07-02T05:07:56;17.40;99.90
7290;DHT22;63176;52.678;13.250;2023-07-02T05:10:22;17.40;99.90
7290;DHT22;63176;52.678;13.250;2023-07-02T05:12:47;17.40;99.90
7290;DHT22;63176;52.678;13.250;2023-07-02T05:15:15;17.40;99.90
7290;DHT22;63176;52.678;13.250;2023-07-02T05:17:41;17.40;99.90
7290;DHT22;63176;52.678;13.250;2023-07-02T05:20:07;17.50;99.90
7290;DHT22;63176;52.678;13.250;2023-07-02T05:22:33;17.50;99.90
7290;DHT22;63176;52.678;13.250;2023-07-02T05:24:58;17.60;99.90
7290;DHT22;63176;52.678;13.250;2023-07-02T05:27:29;17.60;99.90
7290;DHT22;63176;52.678;13.250;2023-07-02T05:29:55;17.60;99.90
7290;DHT22;63176;52.678;13.250;2023-07-02T05:32:20;17.70;99.90
7290;DHT22;63176;52.678;13.250;2023-07-02T05:34:46;17.70;99.90
7290;DHT22;63176;52.678;13.250;2023-07-02T05:37:12;17.70;99.90
7290;DHT22;63176;52.678;13.250;2023-07-02T05:39:37;17.70;99.90
7290;DHT22;63176;52.678;13.250;2023-07-02T05:42:04;17.80;99.90
7290;DHT22;63176;52.678;13.250;2023-07-02T05:44:29;17.90;99.90
7290;DHT22;63176;52.678;13.250;2023-07-02T05:46:55;18.00;99.90
7290;DHT22;63176;52.678;13.250;2023-07-02T05:49:20;18.00;99.90
7290;DHT22;63176;52.678;13.250;2023-07-02T05:51:46;18.00;99.90
7290;DHT22;63176;52.678;13.250;2023-07-02T05:54:13;18.00;99.90
7290;DHT22;63176;52.678;13.250;2023-07-02T05:56:39;17.90;99.90
7290;DHT22;63176;52.678;13.250;2023-07-02T05:59:04;18.00;99.90
7290;DHT22;63176;52.678;13.250;2023-07-02T06:01:30;18.00;99.90
7290;DHT22;63176;52.678;13.250;2023-07-02T06:04:06;17.90;99.90
7290;DHT22;63176;52.678;13.250;2023-07-02T06:06:31;17.90;99.90
7290;DHT22;63176;52.678;13.250;2023-07-02T06:09:00;17.90;99.90
7290;DHT22;63176;52.678;13.250;2023-07-02T06:11:25;17.90;99.90
7290;DHT22;63176;52.678;13.250;2023-07-02T06:14:14;17.90;99.90
7290;DHT22;63176;52.678;13.250;2023-07-02T06:16:40;17.90;99.90
7290;DHT22;63176;52.678;13.250;2023-07-02T06:19:06;17.90;99.90
7290;DHT22;63176;52.678;13.250;2023-07-02T06:21:31;17.90;99.90
7290;DHT22;63176;52.678;13.250;2023-07-02T06:23:57;17.90;99.90
7290;DHT22;63176;52.678;13.250;2023-07-02T06:26:27;17.90;99.90
7290;DHT22;63176;52.678;13.250;2023-07-02T06:28:53;17.90;99.90
7290;DHT22;63176;52.678;13.250;2023-07-02T06:31:18;17.90;99.90
7290;DHT22;63176;52.678;13.250;2023-07-02T06:33:44;18.00;99.90
7290;DHT22;63176;52.678;13.250;2023-07-02T06:36:10;18.00;99.90
7290;DHT22;63176;52.678;13.250;2023-07-02T06:38:36;18.10;99.90
7290;DHT22;63176;52.678;13.250;2023-07-02T06:41:03;18.20;99.90
7290;DHT22;63176;52.678;13.250;2023-07-02T06:43:28;18.30;99.90
7290;DHT22;63176;52.678;13.250;2023-07-02T06:45:54;18.40;99.90
7290;DHT22;63176;52.678;13.250;2023-07-02T06:48:20;18.40;99.90
7290;DHT22;63176;52.678;13.250;2023-07-02T06:50:47;18.40;99.90
7290;DHT22;63176;52.678;13.250;2023-07-02T06:53:13;18.40;99.90
7290;DHT22;63176;52.678;13.250;2023-07-02T06:55:39;18.40;99.90
7290;DHT22;63176;52.678;13.250;2023-07-02T06:58:05;18.40;99.90
7290;DHT22;63176;52.678;13.250;2023-07-02T07:00:32;18.40;99.90
7290;DHT22;63176;52.678;13.250;2023-07-02T07:03:04;18.50;99.90
7290;DHT22;63176;52.678;13.250;2023-07-02T07:05:31;18.50;99.90
7290;DHT22;63176;52.678;13.250;2023-07-02T07:07:57;18.60;99.90
7290;DHT22;63176;52.678;13.250;2023-07-02T07:10:23;18.60;99.90
7290;DHT22;63176;52.678;13.250;2023-07-02T07:12:49;18.70;99.90
7290;DHT22;63176;52.678;13.250;2023-07-02T07:15:15;18.80;99.90
7290;DHT22;63176;52.678;13.250;2023-07-02T07:17:47;18.90;99.90
7290;DHT22;63176;52.678;13.250;2023-07-02T07:20:14;18.90;99.90
7290;DHT22;63176;52.678;13.250;2023-07-02T07:22:40;18.90;99.90
7290;DHT22;63176;52.678;13.250;2023-07-02T07:25:06;18.80;99.90
7290;DHT22;63176;52.678;13.250;2023-07-02T07:27:32;18.80;99.90
7290;DHT22;63176;52.678;13.250;2023-07-02T07:29:57;18.90;99.90
7290;DHT22;63176;52.678;13.250;2023-07-02T07:32:23;19.00;99.90
7290;DHT22;63176;52.678;13.250;2023-07-02T07:34:48;19.00;99.90
7290;DHT22;63176;52.678;13.250;2023-07-02T07:37:14;18.90;99.90
7290;DHT22;63176;52.678;13.250;2023-07-02T07:39:40;18.90;99.90
7290;DHT22;63176;52.678;13.250;2023-07-02T07:42:06;19.00;99.90
7290;DHT22;63176;52.678;13.250;2023-07-02T07:44:31;19.00;99.90
7290;DHT22;63176;52.678;13.250;2023-07-02T07:46:57;19.00;99.90
7290;DHT22;63176;52.678;13.250;2023-07-02T07:49:23;19.10;99.90
7290;DHT22;63176;52.678;13.250;2023-07-02T07:51:48;19.20;99.90
7290;DHT22;63176;52.678;13.250;2023-07-02T07:54:14;19.20;99.90
7290;DHT22;63176;52.678;13.250;2023-07-02T07:56:40;19.30;99.90
7290;DHT22;63176;52.678;13.250;2023-07-02T07:59:06;19.30;99.90
7290;DHT22;63176;52.678;13.250;2023-07-02T08:01:31;19.30;99.90
7290;DHT22;63176;52.678;13.250;2023-07-02T08:03:57;19.30;99.90
7290;DHT22;63176;52.678;13.250;2023-07-02T08:06:22;19.40;99.90
7290;DHT22;63176;52.678;13.250;2023-07-02T08:08:48;19.30;99.90
7290;DHT22;63176;52.678;13.250;2023-07-02T08:11:14;19.30;99.90
7290;DHT22;63176;52.678;13.250;2023-07-02T08:13:40;19.20;99.90
7290;DHT22;63176;52.678;13.250;2023-07-02T08:16:05;19.10;99.90
7290;DHT22;63176;52.678;13.250;2023-07-02T08:18:31;19.00;99.90
7290;DHT22;63176;52.678;13.250;2023-07-02T08:20:56;18.90;99.90
7290;DHT22;63176;52.678;13.250;2023-07-02T08:23:22;18.80;99.90
7290;DHT22;63176;52.678;13.250;2023-07-02T08:25:48;18.70;99.90
7290;DHT22;63176;52.678;13.250;2023-07-02T08:28:13;18.70;99.90
7290;DHT22;63176;52.678;13.250;2023-07-02T08:30:39;18.70;99.90
7290;DHT22;63176;52.678;13.250;2023-07-02T08:33:04;18.70;99.90
7290;DHT22;63176;52.678;13.250;2023-07-02T08:35:30;18.70;99.90
7290;DHT22;63176;52.678;13.250;2023-07-02T08:37:57;18.70;99.90
7290;DHT22;63176;52.678;13.250;2023-07-02T08:40:23;18.70;99.90
7290;DHT22;63176;52.678;13.250;2023-07-02T08:42:49;18.70;99.90
7290;DHT22;63176;52.678;13.250;2023-07-02T08:45:15;18.70;99.90
7290;DHT22;63176;52.678;13.250;2023-07-02T08:47:44;18.80;99.90
7290;DHT22;63176;52.678;13.250;2023-07-02T08:50:13;18.80;99.90
7290;DHT22;63176;52.678;13.250;2023-07-02T08:52:39;18.80;99.90
7290;DHT22;63176;52.678;13.250;2023-07-02T08:55:05;18.80;99.90
7290;DHT22;63176;52.678;13.250;2023-07-02T08:57:31;18.90;99.90
7290;DHT22;63176;52.678;13.250;2023-07-02T08:59:58;19.00;99.90
7290;DHT22;63176;52.678;13.250;2023-07-02T09:02:33;19.00;99.90
7290;DHT22;63176;52.678;13.250;2023-07-02T09:05:03;19.10;99.90
7290;DHT22;63176;52.678;13.250;2023-07-02T09:07:30;19.20;99.90
7290;DHT22;63176;52.678;13.250;2023-07-02T09:09:55;19.40;99.90
7290;DHT22;63176;52.678;13.250;2023-07-02T09:12:29;19.60;99.90
7290;DHT22;63176;52.678;13.250;2023-07-02T09:15:05;19.70;99.90
7290;DHT22;63176;52.678;13.250;2023-07-02T09:17:40;19.80;99.90
7290;DHT22;63176;52.678;13.250;2023-07-02T09:20:07;19.80;99.90
7290;DHT22;63176;52.678;13.250;2023-07-02T09:22:34;19.90;99.90
7290;DHT22;63176;52.678;13.250;2023-07-02T09:25:01;20.00;99.90
7290;DHT22;63176;52.678;13.250;2023-07-02T09:30:10;20.20;99.90
7290;DHT22;63176;52.678;13.250;2023-07-02T09:32:37;20.40;99.90
7290;DHT22;63176;52.678;13.250;2023-07-02T09:35:03;20.30;99.90
7290;DHT22;63176;52.678;13.250;2023-07-02T09:37:31;20.20;99.90
7290;DHT22;63176;52.678;13.250;2023-07-02T09:39:57;20.00;99.90
7290;DHT22;63176;52.678;13.250;2023-07-02T09:42:25;19.90;99.90
7290;DHT22;63176;52.678;13.250;2023-07-02T09:44:59;19.80;99.90
7290;DHT22;63176;52.678;13.250;2023-07-02T09:47:26;19.80;99.90
7290;DHT22;63176;52.678;13.250;2023-07-02T09:52:17;19.70;99.90
7290;DHT22;63176;52.678;13.250;2023-07-02T09:54:44;19.70;99.90
7290;DHT22;63176;52.678;13.250;2023-07-02T09:57:10;19.80;99.90
7290;DHT22;63176;52.678;13.250;2023-07-02T09:59:37;19.90;99.90
7290;DHT22;63176;52.678;13.250;2023-07-02T10:02:03;20.10;99.90
7290;DHT22;63176;52.678;13.250;2023-07-02T10:04:42;20.30;99.90
7290;DHT22;63176;52.678;13.250;2023-07-02T10:07:09;20.40;99.90
7290;DHT22;63176;52.678;13.250;2023-07-02T10:09:37;20.50;99.90
7290;DHT22;63176;52.678;13.250;2023-07-02T10:12:16;20.40;99.90
7290;DHT22;63176;52.678;13.250;2023-07-02T10:14:43;20.60;99.90
7290;DHT22;63176;52.678;13.250;2023-07-02T10:17:09;20.60;99.90
7290;DHT22;63176;52.678;13.250;2023-07-02T10:19:34;20.70;99.90
7290;DHT22;63176;52.678;13.250;2023-07-02T10:22:04;20.70;99.90
7290;DHT22;63176;52.678;13.250;2023-07-02T10:24:30;20.70;99.90
7290;DHT22;63176;52.678;13.250;2023-07-02T10:27:00;20.80;99.90
7290;DHT22;63176;52.678;13.250;2023-07-02T10:29:28;20.90;99.90
7290;DHT22;63176;52.678;13.250;2023-07-02T10:31:55;20.90;99.90
7290;DHT22;63176;52.678;13.250;2023-07-02T10:34:34;21.00;99.90
7290;DHT22;63176;52.678;13.250;2023-07-02T10:37:04;21.20;99.90
7290;DHT22;63176;52.678;13.250;2023-07-02T10:39:30;21.40;99.90
7290;DHT22;63176;52.678;13.250;2023-07-02T10:42:08;21.50;99.90
7290;DHT22;63176;52.678;13.250;2023-07-02T10:44:46;21.70;99.90
7290;DHT22;63176;52.678;13.250;2023-07-02T10:47:12;21.80;99.90
7290;DHT22;63176;52.678;13.250;2023-07-02T10:49:37;22.00;99.90
7290;DHT22;63176;52.678;13.250;2023-07-02T10:52:03;22.20;99.90
7290;DHT22;63176;52.678;13.250;2023-07-02T10:54:46;22.20;99.90
7290;DHT22;63176;52.678;13.250;2023-07-02T10:57:17;22.20;99.90
7290;DHT22;63176;52.678;13.250;2023-07-02T10:59:46;22.10;99.90
7290;DHT22;63176;52.678;13.250;2023-07-02T11:02:11;22.10;99.90
7290;DHT22;63176;52.678;13.250;2023-07-02T11:04:38;22.30;99.90
7290;DHT22;63176;52.678;13.250;2023-07-02T11:07:05;22.30;99.90
7290;DHT22;63176;52.678;13.250;2023-07-02T11:09:30;22.40;99.90
7290;DHT22;63176;52.678;13.250;2023-07-02T11:11:58;22.50;99.90
7290;DHT22;63176;52.678;13.250;2023-07-02T11:14:27;22.50;99.90
7290;DHT22;63176;52.678;13.250;2023-07-02T11:16:57;22.60;99.90
7290;DHT22;63176;52.678;13.250;2023-07-02T11:19:23;22.70;99.90
7290;DHT22;63176;52.678;13.250;2023-07-02T11:21:54;22.70;99.90
7290;DHT22;63176;52.678;13.250;2023-07-02T11:24:32;22.60;99.90
7290;DHT22;63176;52.678;13.250;2023-07-02T11:26:59;22.60;99.90
7290;DHT22;63176;52.678;13.250;2023-07-02T11:29:25;22.60;99.90
7290;DHT22;63176;52.678;13.250;2023-07-02T11:32:13;22.40;99.90
7290;DHT22;63176;52.678;13.250;2023-07-02T11:34:40;22.40;99.90
7290;DHT22;63176;52.678;13.250;2023-07-02T11:37:06;22.20;99.90
7290;DHT22;63176;52.678;13.250;2023-07-02T11:39:32;21.90;99.90
7290;DHT22;63176;52.678;13.250;2023-07-02T11:41:57;21.90;99.90
7290;DHT22;63176;52.678;13.250;2023-07-02T11:44:30;21.80;99.90
7290;DHT22;63176;52.678;13.250;2023-07-02T11:46:56;21.90;99.90
7290;DHT22;63176;52.678;13.250;2023-07-02T11:49:22;22.00;99.90
7290;DHT22;63176;52.678;13.250;2023-07-02T11:51:48;22.30;99.90
7290;DHT22;63176;52.678;13.250;2023-07-02T11:54:16;22.60;99.90
7290;DHT22;63176;52.678;13.250;2023-07-02T11:56:44;22.90;99.90
7290;DHT22;63176;52.678;13.250;2023-07-02T11:59:10;23.10;99.90
7290;DHT22;63176;52.678;13.250;2023-07-02T12:01:36;23.20;99.90
7290;DHT22;63176;52.678;13.250;2023-07-02T12:04:01;23.10;99.90
7290;DHT22;63176;52.678;13.250;2023-07-02T12:06:27;23.10;99.90
7290;DHT22;63176;52.678;13.250;2023-07-02T12:08:53;23.10;99.90
7290;DHT22;63176;52.678;13.250;2023-07-02T12:11:18;22.90;99.90
7290;DHT22;63176;52.678;13.250;2023-07-02T12:13:44;22.70;99.90
7290;DHT22;63176;52.678;13.250;2023-07-02T12:16:10;22.40;99.90
7290;DHT22;63176;52.678;13.250;2023-07-02T12:18:35;22.20;99.90
7290;DHT22;63176;52.678;13.250;2023-07-02T12:21:01;22.10;99.90
7290;DHT22;63176;52.678;13.250;2023-07-02T12:23:27;22.00;99.90
7290;DHT22;63176;52.678;13.250;2023-07-02T12:25:52;21.90;99.90
7290;DHT22;63176;52.678;13.250;2023-07-02T12:28:18;22.10;99.90
7290;DHT22;63176;52.678;13.250;2023-07-02T12:30:43;22.30;99.90
7290;DHT22;63176;52.678;13.250;2023-07-02T12:33:09;22.40;99.90
7290;DHT22;63176;52.678;13.250;2023-07-02T12:35:35;22.60;99.90
7290;DHT22;63176;52.678;13.250;2023-07-02T12:38:01;22.80;99.90
7290;DHT22;63176;52.678;13.250;2023-07-02T12:41:06;23.00;99.90
7290;DHT22;63176;52.678;13.250;2023-07-02T12:46:30;23.40;99.90
7290;DHT22;63176;52.678;13.250;2023-07-02T12:48:57;23.50;99.90
7290;DHT22;63176;52.678;13.250;2023-07-02T12:51:23;23.50;99.90
7290;DHT22;63176;52.678;13.250;2023-07-02T12:53:48;23.70;99.90
7290;DHT22;63176;52.678;13.250;2023-07-02T12:56:14;23.70;99.90
7290;DHT22;63176;52.678;13.250;2023-07-02T12:58:40;23.80;99.90
7290;DHT22;63176;52.678;13.250;2023-07-02T13:01:05;23.80;99.90
7290;DHT22;63176;52.678;13.250;2023-07-02T13:03:31;23.60;99.90
7290;DHT22;63176;52.678;13.250;2023-07-02T13:05:57;23.50;99.90
7290;DHT22;63176;52.678;13.250;2023-07-02T13:08:22;23.20;99.90
7290;DHT22;63176;52.678;13.250;2023-07-02T13:10:48;23.10;99.90
7290;DHT22;63176;52.678;13.250;2023-07-02T13:13:13;23.30;99.90
7290;DHT22;63176;52.678;13.250;2023-07-02T13:15:39;23.50;99.90
7290;DHT22;63176;52.678;13.250;2023-07-02T13:18:04;23.80;99.90
7290;DHT22;63176;52.678;13.250;2023-07-02T13:20:30;23.90;99.90
7290;DHT22;63176;52.678;13.250;2023-07-02T13:22:56;23.80;99.90
7290;DHT22;63176;52.678;13.250;2023-07-02T13:25:23;23.70;99.90
7290;DHT22;63176;52.678;13.250;2023-07-02T13:27:49;23.60;99.90
7290;DHT22;63176;52.678;13.250;2023-07-02T13:30:15;23.30;99.90
7290;DHT22;63176;52.678;13.250;2023-07-02T13:32:40;23.20;99.90
7290;DHT22;63176;52.678;13.250;2023-07-02T13:35:06;23.10;99.90
7290;DHT22;63176;52.678;13.250;2023-07-02T13:37:32;22.90;99.90
7290;DHT22;63176;52.678;13.250;2023-07-02T13:40:01;22.90;99.90
7290;DHT22;63176;52.678;13.250;2023-07-02T13:42:27;22.90;99.90
7290;DHT22;63176;52.678;13.250;2023-07-02T13:44:52;22.80;99.90
7290;DHT22;63176;52.678;13.250;2023-07-02T13:47:18;22.70;99.90
7290;DHT22;63176;52.678;13.250;2023-07-02T13:49:44;22.70;99.90
7290;DHT22;63176;52.678;13.250;2023-07-02T13:52:09;22.80;99.90
7290;DHT22;63176;52.678;13.250;2023-07-02T13:54:35;23.00;99.90
7290;DHT22;63176;52.678;13.250;2023-07-02T13:57:00;23.20;99.90
7290;DHT22;63176;52.678;13.250;2023-07-02T13:59:26;23.20;99.90
7290;DHT22;63176;52.678;13.250;2023-07-02T14:01:52;23.10;99.90
7290;DHT22;63176;52.678;13.250;2023-07-02T14:04:18;23.10;99.90
7290;DHT22;63176;52.678;13.250;2023-07-02T14:06:44;23.30;99.90
7290;DHT22;63176;52.678;13.250;2023-07-02T14:09:10;23.50;99.90
7290;DHT22;63176;52.678;13.250;2023-07-02T14:11:39;23.50;99.90
7290;DHT22;63176;52.678;13.250;2023-07-02T14:14:05;23.40;99.90
7290;DHT22;63176;52.678;13.250;2023-07-02T14:16:31;23.20;99.90
7290;DHT22;63176;52.678;13.250;2023-07-02T14:18:57;23.00;99.90
7290;DHT22;63176;52.678;13.250;2023-07-02T14:21:23;23.20;99.90
7290;DHT22;63176;52.678;13.250;2023-07-02T14:23:49;23.40;99.90
7290;DHT22;63176;52.678;13.250;2023-07-02T14:26:14;23.50;99.90
7290;DHT22;63176;52.678;13.250;2023-07-02T14:28:40;23.30;99.90
7290;DHT22;63176;52.678;13.250;2023-07-02T14:31:06;23.10;99.90
7290;DHT22;63176;52.678;13.250;2023-07-02T14:33:34;22.90;99.90
7290;DHT22;63176;52.678;13.250;2023-07-02T14:36:01;22.70;99.90
7290;DHT22;63176;52.678;13.250;2023-07-02T14:38:28;22.50;99.90
7290;DHT22;63176;52.678;13.250;2023-07-02T14:40:55;22.40;99.90
7290;DHT22;63176;52.678;13.250;2023-07-02T14:43:27;22.30;99.90
7290;DHT22;63176;52.678;13.250;2023-07-02T14:45:55;22.10;99.90
7290;DHT22;63176;52.678;13.250;2023-07-02T14:48:21;22.10;99.90
7290;DHT22;63176;52.678;13.250;2023-07-02T14:50:55;22.50;99.90
7290;DHT22;63176;52.678;13.250;2023-07-02T14:53:23;23.20;99.90
7290;DHT22;63176;52.678;13.250;2023-07-02T14:55:48;23.90;99.90
7290;DHT22;63176;52.678;13.250;2023-07-02T14:58:16;24.00;99.90
7290;DHT22;63176;52.678;13.250;2023-07-02T15:00:53;23.80;99.90
7290;DHT22;63176;52.678;13.250;2023-07-02T15:03:20;23.60;99.90
7290;DHT22;63176;52.678;13.250;2023-07-02T15:05:48;23.30;99.90
7290;DHT22;63176;52.678;13.250;2023-07-02T15:08:14;22.90;99.90
7290;DHT22;63176;52.678;13.250;2023-07-02T15:10:45;22.70;99.90
7290;DHT22;63176;52.678;13.250;2023-07-02T15:13:10;22.50;99.90
7290;DHT22;63176;52.678;13.250;2023-07-02T15:15:37;22.30;99.90
7290;DHT22;63176;52.678;13.250;2023-07-02T15:18:05;22.20;99.90
7290;DHT22;63176;52.678;13.250;2023-07-02T15:20:30;22.40;99.90
7290;DHT22;63176;52.678;13.250;2023-07-02T15:22:56;22.50;99.90
7290;DHT22;63176;52.678;13.250;2023-07-02T15:25:22;22.80;99.90
7290;DHT22;63176;52.678;13.250;2023-07-02T15:27:48;23.10;99.90
7290;DHT22;63176;52.678;13.250;2023-07-02T15:30:14;23.30;99.90
7290;DHT22;63176;52.678;13.250;2023-07-02T15:32:39;23.50;99.90
7290;DHT22;63176;52.678;13.250;2023-07-02T15:35:05;23.60;99.90
7290;DHT22;63176;52.678;13.250;2023-07-02T15:37:31;23.60;99.90
7290;DHT22;63176;52.678;13.250;2023-07-02T15:39:57;23.50;99.90
7290;DHT22;63176;52.678;13.250;2023-07-02T15:42:22;23.40;99.90
7290;DHT22;63176;52.678;13.250;2023-07-02T15:44:53;23.30;99.90